Aberdeen, SD (57401)

9:19 AM CST on February 11, 2016 (GMT -0600)
Simmons | | Change Station
CLOSE
Current Station
Personal Weather Station
Location: Aberdeen, SD
Elevation: 1312 ft
Nearby Weather Stations

Elev 1312 ft 45.45 °N, 98.49 °W | Updated 9 minutes ago

Overcast
Overcast
16.5 °F
Feels Like 16 °F
N
2.2
Wind Variable Wind from SE

Today
High -- | Low -- °F
--% Chance of Precip.
Yesterday
High -- | Low -- °F
Precip. -- in
Pressure 30.27 in
Visibility 10.0 miles
Clouds Overcast 1000 ft
Windchill 16 °F
Dew Point 15 °F
Humidity 94%
Rainfall 0.00 in
Snow Depth Not available.
7:42 AM 5:54 PM
Waxing Crescent, 12% visible
METAR KABR 111453Z AUTO 17007KT 10SM OVC010 M08/M11 A3020 RMK AO2 SNB16E26 SLP251 P0000 60000 T10831111 56011
Pressure 30.27 in
Visibility 10.0 miles
Clouds Overcast 1000 ft
Windchill 16 °F
Dew Point 15 °F
Humidity 94%
Rainfall 0.00 in
Snow Depth Not available.
7:42 AM 5:54 PM
Waxing Crescent, 12% visible
METAR KABR 111453Z AUTO 17007KT 10SM OVC010 M08/M11 A3020 RMK AO2 SNB16E26 SLP251 P0000 60000 T10831111 56011

10-Day Weather Forecast

Almanac

Astronomy

Feb. 11, 2016 Rise Set
Actual Time
Civil Twilight
Nautical Twilight
Astronomical Twilight
Moon
Length of Visible Light
Length of Day
Tomorrow will be .
, % of the Moon is Illuminated

Today's Extremes

State Highs State Lows

Community

WunderPhotos

Upload Photos

1,892,060 photos uploaded!

WunderBlog® & News

Nearby

Air Quality

  Air Quality AQ Index Pollutant
Not available.

Snow Depth

Station Depth Elevation

Earthquake Activity

City Distance Mag. Time & Date
Minimum magnitude displayed is 2.5.

Coastal Water Temperatures

Place Temperature

Stations

Nearby Weather Stations

Station Location Temp. Windchill Dew Point Humidity Wind Precip. Elev Updated Type
                   

Watches & Warnings

There are currently no watches in effect.